Time;durP1;ratioP1;P1;durP2;ratioP2;P2;SDS_P1;SDS_P2;PMS_P1;PMS_P2;Temp;Humidity;BMP_temperature;BMP_pressure;BME280_temperature;BME280_humidity;BME280_pressure;Samples;Min_cycle;Max_cycle;Signal;HPM_P1;HPM_P2
2022/08/12 00:43:28;;;;;;;8.13;7.15;;;;;;;15.19;62.92;99978.47;5037258;28;20045;-76
2022/08/12 00:48:41;;;;;;;9.77;6.45;;;;;;;14.97;63.80;99973.28;5041605;28;20046;-76
2022/08/12 00:51:08;;;;;;;7.70;6.90;;;;;;;15.04;63.27;99980.72;5017643;28;20049;-75
2022/08/12 00:53:36;;;;;;;8.73;7.28;;;;;;;15.05;63.51;99976.19;5001384;28;20381;-75
2022/08/12 00:56:03;;;;;;;12.73;6.78;;;;;;;15.01;63.40;99980.16;5035187;28;20416;-75
2022/08/12 00:58:30;;;;;;;7.65;6.57;;;;;;;15.02;63.59;99981.84;5001196;28;20092;-75
2022/08/12 01:01:07;;;;;;;9.70;7.22;;;;;;;15.00;63.62;99978.41;5017284;28;20041;-75
2022/08/12 01:11:52;;;;;;;7.50;6.70;;;;;;;14.88;64.06;99990.28;5035144;28;20049;-75
2022/08/12 01:14:22;;;;;;;7.25;6.10;;;;;;;14.84;64.49;100000.44;5000818;28;20079;-76
2022/08/12 01:16:51;;;;;;;11.02;6.88;;;;;;;14.94;64.05;100006.75;5000718;28;20136;-75
2022/08/12 01:19:22;;;;;;;9.63;6.72;;;;;;;14.94;64.39;100005.91;5034636;28;20037;-75
2022/08/12 01:22:16;;;;;;;11.10;6.90;;;;;;;14.95;64.38;100012.97;5033665;28;20065;-75
2022/08/12 01:25:02;;;;;;;9.23;6.82;;;;;;;14.95;64.06;100005.75;5033758;28;20055;-75
2022/08/12 01:27:33;;;;;;;7.10;6.38;;;;;;;14.91;64.09;100000.78;5017104;28;20084;-75
2022/08/12 01:30:03;;;;;;;10.30;7.60;;;;;;;14.96;64.06;100015.53;5033326;28;20132;-75
2022/08/12 01:32:36;;;;;;;6.93;6.22;;;;;;;15.09;63.92;100012.63;5033023;28;20045;-75
2022/08/12 01:35:05;;;;;;;11.23;6.65;;;;;;;15.07;63.63;100022.66;5017225;28;20044;-76
2022/08/12 01:37:35;;;;;;;;;;;;;;;15.11;63.55;100026.78;5000176;28;20104;-74
2022/08/12 01:40:02;;;;;;;8.85;7.25;;;;;;;15.07;63.72;100019.97;5017065;28;19921;-75
2022/08/12 01:42:42;;;;;;;8.98;6.40;;;;;;;15.15;63.57;100030.91;5016762;28;20056;-74
2022/08/12 01:45:11;;;;;;;8.90;7.78;;;;;;;15.19;63.50;100036.88;5034487;28;20042;-76
2022/08/12 01:48:03;;;;;;;9.50;7.50;;;;;;;15.16;63.19;100012.94;5000098;28;20512;-75
2022/08/12 01:50:54;;;;;;;9.07;7.72;;;;;;;15.30;63.30;100026.00;5034033;28;20512;-76
2022/08/12 01:53:24;;;;;;;10.90;8.00;;;;;;;15.30;62.91;100018.78;5033132;28;20041;-75
2022/08/12 01:55:53;;;;;;;10.00;7.90;;;;;;;15.22;63.01;100018.63;5034099;28;20099;-75
2022/08/12 01:58:25;;;;;;;9.07;7.65;;;;;;;15.23;63.41;100023.03;5016144;28;20033;-75
2022/08/12 02:01:10;;;;;;;11.73;7.30;;;;;;;15.06;63.26;100005.66;5034467;28;20072;-75
2022/08/12 02:13:09;;;;;;;8.45;7.60;;;;;;;15.38;63.05;100038.78;5032422;28;20049;-74
2022/08/12 02:15:50;;;;;;;10.52;7.60;;;;;;;15.37;63.53;100040.63;5032994;28;20496;-75
2022/08/12 02:18:23;;;;;;;9.75;7.30;;;;;;;15.28;63.38;100030.69;5032564;28;20438;-75
2022/08/12 02:21:02;;;;;;;8.10;7.30;;;;;;;15.23;63.92;100047.28;5015884;28;20480;-74
2022/08/12 02:23:29;;;;;;;;;;;;;;;15.29;63.71;100052.09;5016093;28;20531;-74
2022/08/12 02:26:00;;;;;;;10.98;7.65;;;;;;;15.34;63.69;100035.53;5015819;28;20319;-77
2022/08/12 02:28:26;;;;;;;8.23;7.43;;;;;;;15.40;63.34;100047.59;5032087;28;20499;-76
2022/08/12 02:30:54;;;;;;;9.57;8.00;;;;;;;15.37;63.56;100040.63;5032129;28;20049;-78
2022/08/12 02:33:21;;;;;;;12.98;8.55;;;;;;;15.38;64.05;100046.88;5033294;28;20046;-75
2022/08/12 02:35:47;;;;;;;13.85;8.73;;;;;;;15.33;63.42;100022.19;4999295;28;20076;-76
2022/08/12 02:38:13;;;;;;;16.50;9.13;;;;;;;15.53;63.62;100056.28;4998710;28;20124;-76
2022/08/12 02:40:44;;;;;;;17.23;8.63;;;;;;;15.65;63.08;100049.84;5015939;28;20037;-76
2022/08/12 02:43:13;;;;;;;16.27;8.75;;;;;;;15.76;62.73;100047.03;4998683;28;20212;-75
2022/08/12 02:45:46;;;;;;;17.08;9.15;;;;;;;15.75;62.76;100050.69;5032114;28;20125;-79
2022/08/12 02:48:41;;;;;;;11.18;8.63;;;;;;;15.78;62.79;100058.53;5014536;28;20056;-74
2022/08/12 02:51:10;;;;;;;11.65;8.98;;;;;;;15.72;62.91;100045.63;5006431;28;20107;-76
2022/08/12 02:53:38;;;;;;;13.77;10.50;;;;;;;15.76;62.98;100038.97;5015494;28;20045;-75
2022/08/12 02:56:05;;;;;;;13.48;9.52;;;;;;;15.90;62.76;100058.41;5015093;28;20045;-75
2022/08/12 02:58:34;;;;;;;16.55;10.32;;;;;;;16.01;63.00;100064.50;5047939;28;20041;-76
2022/08/12 03:01:02;;;;;;;13.93;9.70;;;;;;;16.08;62.30;100061.28;5032995;28;20046;-76
2022/08/12 03:03:33;;;;;;;13.95;9.02;;;;;;;16.13;62.16;100064.38;5032101;28;20042;-78
2022/08/12 03:06:05;;;;;;;12.00;8.90;;;;;;;16.15;62.12;100067.81;5000468;28;20038;-78
2022/08/12 03:08:42;;;;;;;12.52;9.10;;;;;;;16.21;62.31;100061.84;5033278;28;20060;-74
2022/08/12 03:11:24;;;;;;;13.13;9.32;;;;;;;16.22;62.50;100064.41;5033301;28;20052;-79
2022/08/12 03:13:54;;;;;;;14.60;9.85;;;;;;;16.36;61.78;100064.97;4999836;28;20033;-76
2022/08/12 03:16:22;;;;;;;19.70;9.15;;;;;;;16.45;62.02;100078.47;4998621;28;20484;-75
2022/08/12 03:18:50;;;;;;;14.55;8.90;;;;;;;16.57;61.74;100067.53;5031731;28;20047;-75
2022/08/12 03:21:18;;;;;;;20.98;9.02;;;;;;;16.74;61.55;100067.69;5014783;28;20094;-76
2022/08/12 03:23:46;;;;;;;13.90;8.20;;;;;;;16.86;60.63;100071.06;5014963;28;20047;-76
2022/08/12 03:26:13;;;;;;;13.25;8.35;;;;;;;16.91;60.89;100070.63;4998387;28;20091;-75
2022/08/12 03:28:49;;;;;;;12.23;7.90;;;;;;;16.93;60.54;100074.88;5032712;28;20507;-75
2022/08/12 03:31:33;;;;;;;9.07;7.50;;;;;;;16.97;60.21;100059.25;5031388;28;20050;-75
2022/08/12 03:34:05;;;;;;;11.90;7.07;;;;;;;17.11;59.82;100066.88;5014935;28;20119;-76
2022/08/12 03:36:33;;;;;;;9.20;6.97;;;;;;;17.19;59.35;100075.09;5032307;28;20060;-75
2022/08/12 03:42:00;;;;;;;10.40;7.10;;;;;;;17.39;58.93;100075.03;5039859;28;20299;-75
2022/08/12 04:01:30;;;;;;;11.93;7.82;;;;;;;18.06;56.90;100063.00;5031574;28;20055;-77
2022/08/12 04:03:56;;;;;;;16.67;7.70;;;;;;;18.14;56.79;100064.94;5035139;28;20091;-75
2022/08/12 04:06:28;;;;;;;10.98;7.82;;;;;;;18.25;56.10;100066.56;5035885;28;20045;-76
2022/08/12 04:08:57;;;;;;;16.45;8.07;;;;;;;18.29;56.32;100076.09;5018323;28;20041;-76
2022/08/12 04:14:19;;;;;;;13.65;7.85;;;;;;;18.58;54.99;100074.00;5035194;28;20041;-77
2022/08/12 04:16:49;;;;;;;17.75;7.50;;;;;;;18.71;54.20;100072.75;5018207;28;20048;-76
2022/08/12 04:19:17;;;;;;;10.85;6.80;;;;;;;18.72;53.79;100069.88;5034517;28;20041;-76
2022/08/12 04:21:43;;;;;;;10.05;6.07;;;;;;;18.84;52.98;100074.06;5035789;28;20041;-76
2022/08/12 04:24:10;;;;;;;11.52;6.30;;;;;;;18.79;53.03;100070.09;5018123;28;20049;-75
2022/08/12 04:26:39;;;;;;;11.60;6.88;;;;;;;18.93;53.40;100074.97;5034874;28;20044;-76
2022/08/12 04:29:09;;;;;;;17.15;7.00;;;;;;;18.99;52.99;100070.75;5018002;28;20123;-76
2022/08/12 04:31:40;;;;;;;18.13;6.28;;;;;;;19.04;53.04;100069.28;5033926;28;20405;-75
2022/08/12 04:34:13;;;;;;;8.68;6.10;;;;;;;19.15;52.41;100077.13;5034478;28;20038;-76
2022/08/12 04:36:41;;;;;;;13.38;5.60;;;;;;;19.31;51.49;100076.38;5034503;28;20061;-76
2022/08/12 04:39:09;;;;;;;8.77;5.38;;;;;;;19.39;51.31;100062.00;5035153;28;20058;-76
2022/08/12 04:41:36;;;;;;;6.33;5.37;;;;;;;19.64;51.05;100072.00;5035469;28;20045;-76
2022/08/12 04:44:06;;;;;;;19.92;5.50;;;;;;;19.67;49.78;100069.94;5034182;28;20038;-76
2022/08/12 04:46:33;;;;;;;9.32;4.95;;;;;;;19.67;49.83;100076.25;5017725;28;20045;-76
2022/08/12 04:49:01;;;;;;;8.68;4.75;;;;;;;19.72;49.47;100067.63;5033994;28;20416;-76
2022/08/12 04:51:28;;;;;;;15.68;5.45;;;;;;;19.84;49.13;100066.28;5034989;28;20496;-76
2022/08/12 04:53:54;;;;;;;12.32;4.72;;;;;;;19.88;48.90;100063.06;5035429;28;20045;-76
2022/08/12 04:56:20;;;;;;;12.13;4.85;;;;;;;20.01;48.79;100067.16;5034290;28;20049;-76
2022/08/12 04:58:46;;;;;;;12.65;4.65;;;;;;;20.09;48.45;100080.78;5033891;28;20114;-77
2022/08/12 05:01:12;;;;;;;9.38;5.18;;;;;;;20.01;48.38;100059.91;5035021;28;20133;-76
2022/08/12 05:03:38;;;;;;;13.27;5.28;;;;;;;20.18;47.95;100073.50;5035176;28;20481;-75
2022/08/12 05:06:06;;;;;;;9.23;5.40;;;;;;;20.26;48.02;100066.22;5033846;28;20041;-76
2022/08/12 05:08:33;;;;;;;13.88;5.05;;;;;;;20.31;47.18;100071.13;5000835;28;20087;-77
2022/08/12 05:11:00;;;;;;;9.38;4.72;;;;;;;20.20;46.81;100055.16;5034839;28;20045;-76
2022/08/12 05:13:45;;;;;;;13.63;5.30;;;;;;;20.38;47.13;100061.28;5032409;28;20128;-76
2022/08/12 05:16:11;;;;;;;13.05;4.28;;;;;;;20.62;46.24;100074.09;5033718;28;20045;-75
2022/08/12 05:18:38;;;;;;;8.43;4.35;;;;;;;20.72;45.92;100061.16;5016831;28;20597;-76
2022/08/12 05:21:06;;;;;;;9.63;4.22;;;;;;;20.80;45.67;100074.75;5017023;28;20046;-76
2022/08/12 05:23:32;;;;;;;12.95;4.63;;;;;;;20.91;45.34;100076.28;5033178;28;20525;-76
2022/08/12 05:25:59;;;;;;;9.35;4.90;;;;;;;21.06;44.44;100074.56;5034932;28;20049;-77
2022/08/12 05:28:27;;;;;;;9.50;4.30;;;;;;;21.13;44.67;100080.13;5033738;28;20049;-76
2022/08/12 05:30:55;;;;;;;12.98;3.95;;;;;;;21.26;44.13;100074.19;5050519;28;20099;-77
2022/08/12 05:33:25;;;;;;;9.00;4.28;;;;;;;21.39;44.13;100070.94;5033818;28;20045;-77
2022/08/12 05:35:51;;;;;;;12.05;4.22;;;;;;;21.55;43.45;100077.19;5017100;28;20091;-77
2022/08/12 05:41:17;;;;;;;13.25;3.88;;;;;;;21.63;43.56;100064.56;5034285;28;20045;-76
2022/08/12 05:43:51;;;;;;;20.25;4.13;;;;;;;21.87;42.96;100059.00;5033769;28;20187;-76
2022/08/12 05:46:19;;;;;;;13.05;4.22;;;;;;;21.91;42.37;100071.22;5017300;28;20072;-77
2022/08/12 05:48:45;;;;;;;8.20;3.70;;;;;;;21.84;42.24;100056.63;5034864;28;20041;-77
2022/08/12 05:51:11;;;;;;;16.20;3.78;;;;;;;21.72;42.40;100068.94;5034922;28;20099;-77
2022/08/12 05:53:39;;;;;;;9.27;3.63;;;;;;;21.65;42.62;100063.34;5033749;28;20041;-77
2022/08/12 05:56:05;;;;;;;16.88;3.90;;;;;;;21.69;42.67;100044.78;5016640;28;20115;-76
2022/08/12 05:58:33;;;;;;;6.03;3.55;;;;;;;21.88;42.29;100062.56;5032740;28;20107;-75
2022/08/12 06:01:00;;;;;;;19.25;3.67;;;;;;;21.73;42.87;100048.84;5032499;28;20041;-76
2022/08/12 06:03:26;;;;;;;11.32;3.38;;;;;;;22.10;42.42;100055.47;5016206;28;20049;-76
2022/08/12 06:05:52;;;;;;;9.63;3.22;;;;;;;22.19;41.64;100049.81;5032659;28;20087;-76
2022/08/12 06:08:18;;;;;;;14.07;3.20;;;;;;;22.38;41.13;100056.66;5032653;28;20047;-75
2022/08/12 06:10:48;;;;;;;7.10;3.13;;;;;;;22.44;40.71;100053.19;4999544;28;20065;-76
2022/08/12 06:13:14;;;;;;;10.63;3.55;;;;;;;22.45;40.66;100048.59;5032398;28;20144;-77
2022/08/12 06:15:40;;;;;;;13.65;3.38;;;;;;;22.41;40.37;100055.44;5033894;28;20107;-77
2022/08/12 06:18:12;;;;;;;8.38;3.13;;;;;;;22.57;39.93;100046.28;5049089;28;20057;-76
2022/08/12 06:20:38;;;;;;;7.55;2.88;;;;;;;22.55;39.90;100044.59;5015748;28;20144;-76
2022/08/12 06:23:04;;;;;;;7.40;3.30;;;;;;;22.67;39.98;100046.88;5033223;28;20556;-77
2022/08/12 06:25:30;;;;;;;8.27;3.13;;;;;;;22.48;40.01;100035.44;5031988;28;20049;-75
2022/08/12 06:27:58;;;;;;;11.68;3.20;;;;;;;22.64;39.89;100048.13;5033189;28;20476;-77
2022/08/12 06:30:28;;;;;;;8.55;3.78;;;;;;;22.83;39.75;100041.28;5032090;28;20147;-77
2022/08/12 06:32:54;;;;;;;5.00;2.47;;;;;;;22.79;38.97;100039.94;5032207;28;20037;-77
2022/08/12 06:35:21;;;;;;;11.65;3.30;;;;;;;22.74;39.73;100042.38;5032064;28;20033;-77
2022/08/12 06:37:51;;;;;;;6.78;3.33;;;;;;;22.96;39.03;100046.13;5031715;28;20045;-77
2022/08/12 06:42:46;;;;;;;10.30;2.75;;;;;;;23.03;39.25;100028.84;5048267;28;20060;-76
2022/08/12 06:43:06;;;;;;;9.00;3.20;;;;;;;23.19;38.96;100033.25;5015603;28;20041;-76
2022/08/12 06:45:44;;;;;;;9.65;3.15;;;;;;;23.08;39.57;100024.69;5031891;28;20052;-77
2022/08/12 06:48:10;;;;;;;7.32;3.08;;;;;;;23.45;39.59;100026.50;5015330;28;20385;-76
2022/08/12 06:50:37;;;;;;;6.72;2.65;;;;;;;23.62;38.40;100024.38;5032360;28;20049;-77
2022/08/12 06:53:05;;;;;;;13.85;2.92;;;;;;;23.60;38.05;100021.00;5033115;28;20051;-77
2022/08/12 06:55:31;;;;;;;3.47;2.55;;;;;;;23.48;37.61;99998.84;5015366;28;20053;-75
2022/08/12 06:58:19;;;;;;;5.18;2.50;;;;;;;23.55;37.89;100012.56;5018507;28;20151;-77
2022/08/12 07:00:46;;;;;;;7.85;2.80;;;;;;;23.67;37.87;100017.38;5032506;28;20497;-76
2022/08/12 07:03:17;;;;;;;7.60;2.67;;;;;;;23.94;37.21;100018.50;5032803;28;20044;-77
2022/08/12 07:05:43;;;;;;;7.68;2.60;;;;;;;23.89;36.17;100010.06;5031880;28;20136;-76
2022/08/12 07:08:15;;;;;;;3.83;2.47;;;;;;;23.82;36.57;100011.88;5031543;28;20033;-76
2022/08/12 07:10:46;;;;;;;6.20;2.75;;;;;;;23.69;36.89;99992.59;5031440;28;20057;-77
2022/08/12 07:13:11;;;;;;;6.68;2.70;;;;;;;23.93;36.57;100000.44;5031770;28;20042;-76
2022/08/12 07:15:39;;;;;;;9.23;2.83;;;;;;;24.21;36.09;100010.59;4998548;28;20057;-76
2022/08/12 07:18:17;;;;;;;8.10;2.60;;;;;;;24.31;35.14;99992.00;5015207;28;20501;-77
2022/08/12 07:20:46;;;;;;;3.05;2.55;;;;;;;24.49;35.84;99988.00;5014896;28;20192;-77
2022/08/12 07:23:14;;;;;;;9.57;2.60;;;;;;;24.73;35.23;99990.28;5032431;28;20057;-77
2022/08/12 07:25:41;;;;;;;8.70;2.72;;;;;;;25.03;35.47;99995.53;5031398;28;20064;-76
2022/08/12 07:28:17;;;;;;;5.63;2.40;;;;;;;25.29;34.55;99994.88;5032009;28;20527;-77
2022/08/12 07:30:45;;;;;;;7.72;3.20;;;;;;;25.20;34.26;99988.72;5032254;28;20042;-76
2022/08/12 07:33:12;;;;;;;6.57;2.67;;;;;;;24.95;33.66;99986.44;5030889;28;20099;-76
2022/08/12 07:35:46;;;;;;;8.13;2.30;;;;;;;24.45;34.15;99988.38;5014945;28;20049;-76
2022/08/12 07:38:32;;;;;;;9.60;2.60;;;;;;;24.83;34.65;99984.47;5051704;28;20124;-76
2022/08/12 07:41:18;;;;;;;5.70;2.90;;;;;;;24.88;33.35;99988.28;5035430;28;20508;-76
2022/08/12 07:43:50;;;;;;;7.20;2.25;;;;;;;25.01;33.02;99989.41;5018839;28;20046;-76
2022/08/12 07:46:20;;;;;;;4.13;2.20;;;;;;;25.18;33.42;99988.06;5035062;28;20048;-77
2022/08/12 07:48:49;;;;;;;5.43;2.30;;;;;;;25.18;34.07;99985.34;5034776;28;20482;-76
2022/08/12 07:51:17;;;;;;;5.35;2.67;;;;;;;25.07;34.12;99980.41;5036130;28;20149;-77
2022/08/12 07:53:43;;;;;;;5.30;2.63;;;;;;;25.11;33.87;99989.94;5034891;28;20041;-76
2022/08/12 07:56:10;;;;;;;7.90;2.90;;;;;;;25.09;33.12;99981.06;5036261;28;20136;-77
2022/08/12 07:58:38;;;;;;;7.20;2.70;;;;;;;25.22;33.81;99983.88;5018704;28;20037;-76
2022/08/12 08:01:09;;;;;;;9.60;2.38;;;;;;;25.51;33.73;99988.25;5035968;28;20041;-76
2022/08/12 08:04:54;;;;;;;9.70;2.28;;;;;;;25.40;32.40;99981.44;5036153;28;20045;-77
2022/08/12 08:06:25;;;;;;;3.83;2.08;;;;;;;25.24;32.32;99980.94;5035349;28;20049;-77
2022/08/12 08:08:55;;;;;;;5.55;2.25;;;;;;;25.54;32.67;99973.28;5034621;28;20386;-76
2022/08/12 08:14:08;;;;;;;3.08;2.75;;;;;;;26.07;32.92;99981.72;5034817;28;20145;-77
2022/08/12 08:16:39;;;;;;;7.45;2.53;;;;;;;25.95;33.08;99964.16;5018202;28;20044;-77
2022/08/12 08:19:18;;;;;;;6.93;2.38;;;;;;;26.04;32.53;99965.69;5035728;28;20086;-77
2022/08/12 08:21:43;;;;;;;;;;;;;;;25.97;32.77;99970.31;5001855;28;20042;-77
2022/08/12 08:24:15;;;;;;;6.38;2.40;;;;;;;25.95;32.11;99966.91;5035564;28;19932;-77
2022/08/12 08:26:46;;;;;;;5.20;2.05;;;;;;;26.12;32.12;99965.47;5034837;28;20124;-77
2022/08/12 08:29:17;;;;;;;5.85;2.10;;;;;;;26.23;30.41;99962.13;5034826;28;20041;-77
2022/08/12 08:31:49;;;;;;;9.45;2.40;;;;;;;26.28;30.41;99967.81;5017970;28;20045;-77
2022/08/12 08:34:16;;;;;;;7.93;2.28;;;;;;;26.03;31.53;99966.75;5017626;28;20045;-78
2022/08/12 08:36:43;;;;;;;9.73;2.38;;;;;;;26.18;31.41;99967.38;5034374;28;20045;-78
2022/08/12 08:39:11;;;;;;;5.05;2.10;;;;;;;26.28;31.85;99956.84;5017426;28;20061;-77
2022/08/12 08:44:22;;;;;;;6.88;2.38;;;;;;;26.76;29.64;99940.19;5017516;28;20042;-77
2022/08/12 08:46:48;;;;;;;5.97;2.10;;;;;;;26.83;28.82;99948.41;5033473;28;20091;-77
2022/08/12 08:49:16;;;;;;;15.35;2.28;;;;;;;27.00;29.18;99954.28;5033911;28;20080;-76
2022/08/12 08:51:46;;;;;;;3.47;1.90;;;;;;;27.05;29.26;99954.50;5017379;28;20038;-76
2022/08/12 08:54:12;;;;;;;6.20;1.85;;;;;;;27.30;29.12;99951.88;5034286;28;20045;-77
2022/08/12 08:56:42;;;;;;;7.57;2.53;;;;;;;26.90;27.95;99943.75;5017225;28;20045;-77
2022/08/12 08:59:10;;;;;;;2.65;1.90;;;;;;;26.81;28.17;99950.50;5001107;28;20037;-78
2022/08/12 09:01:37;;;;;;;2.87;2.10;;;;;;;26.84;28.91;99948.19;5033616;28;20041;-77
2022/08/12 09:04:03;;;;;;;4.18;2.00;;;;;;;26.90;29.08;99931.94;5033432;28;20081;-77
2022/08/12 09:06:29;;;;;;;3.00;2.15;;;;;;;27.30;28.71;99935.41;5034684;28;20073;-77
2022/08/12 09:08:55;;;;;;;3.03;2.20;;;;;;;27.50;28.93;99938.09;5033669;28;20056;-78
2022/08/12 09:14:06;;;;;;;3.45;2.10;;;;;;;27.80;27.71;99939.22;5034971;28;20125;-78
2022/08/12 09:16:33;;;;;;;5.30;2.20;;;;;;;27.76;28.06;99927.00;5034555;28;20128;-77
2022/08/12 09:19:00;;;;;;;3.45;2.10;;;;;;;27.76;27.55;99934.41;5033500;28;20511;-78
2022/08/12 09:21:28;;;;;;;3.08;2.15;;;;;;;27.93;27.90;99920.97;5032965;28;20041;-77
2022/08/12 09:23:57;;;;;;;4.32;2.20;;;;;;;28.27;27.33;99925.97;5033478;28;20060;-77
2022/08/12 09:26:24;;;;;;;5.38;1.92;;;;;;;28.54;26.73;99921.09;5033326;28;20053;-78
2022/08/12 09:28:50;;;;;;;3.63;2.40;;;;;;;28.63;26.73;99926.34;5034307;28;20060;-77
2022/08/12 09:31:16;;;;;;;5.40;2.30;;;;;;;28.20;27.77;99927.09;5033304;28;20075;-77
2022/08/12 09:33:42;;;;;;;3.08;2.00;;;;;;;28.16;28.13;99929.44;5032781;28;20073;-78
2022/08/12 09:36:08;;;;;;;4.35;2.15;;;;;;;28.19;28.07;99930.91;5033006;28;20037;-77
2022/08/12 09:38:34;;;;;;;6.07;2.38;;;;;;;28.35;28.10;99915.75;5034056;28;20060;-77
2022/08/12 09:41:00;;;;;;;4.50;2.33;;;;;;;28.45;28.13;99916.13;5034297;28;20045;-78
2022/08/12 09:46:16;;;;;;;6.80;2.55;;;;;;;28.68;28.40;99902.56;5034104;28;20098;-77
2022/08/12 09:48:43;;;;;;;4.28;2.25;;;;;;;29.00;27.86;99916.25;5016469;28;20041;-77
2022/08/12 09:51:11;;;;;;;6.07;2.58;;;;;;;29.06;27.83;99915.31;5016224;28;20131;-77
2022/08/12 09:53:38;;;;;;;4.60;2.10;;;;;;;29.00;27.49;99910.75;5033453;28;20441;-77
2022/08/12 09:56:05;;;;;;;6.72;2.33;;;;;;;28.93;27.93;99904.44;5032517;28;20045;-77
2022/08/12 09:58:31;;;;;;;6.53;2.25;;;;;;;29.10;27.65;99908.28;5033465;28;20048;-77
2022/08/12 10:01:05;;;;;;;6.68;2.40;;;;;;;29.05;27.36;99905.38;5033720;28;20441;-77
2022/08/12 10:03:33;;;;;;;4.30;2.50;;;;;;;29.27;27.82;99900.25;5033744;28;20072;-77
2022/08/12 10:06:01;;;;;;;10.18;2.90;;;;;;;29.94;26.75;99891.88;5032450;28;20553;-77
2022/08/12 10:08:29;;;;;;;10.98;2.58;;;;;;;30.05;25.85;99885.56;5032397;28;20102;-78
2022/08/12 10:13:42;;;;;;;6.13;2.40;;;;;;;30.05;25.46;99904.00;5032559;28;20072;-78
2022/08/12 10:16:16;;;;;;;5.30;2.42;;;;;;;30.31;25.27;99888.97;5033603;28;20091;-77
2022/08/12 10:18:45;;;;;;;4.97;2.30;;;;;;;30.34;25.32;99891.28;5033487;28;20045;-77
2022/08/12 10:21:14;;;;;;;9.30;2.17;;;;;;;30.28;25.04;99884.81;5033584;28;20475;-78
2022/08/12 10:23:43;;;;;;;3.50;2.13;;;;;;;30.31;25.30;99894.50;5015709;28;20061;-78
2022/08/12 10:31:40;;;;;;;3.65;2.60;;;;;;;31.46;24.14;99888.25;5015806;28;20078;-76
2022/08/12 10:34:09;;;;;;;5.35;2.58;;;;;;;31.50;24.14;99886.69;5031858;28;20095;-76
2022/08/12 10:36:38;;;;;;;3.13;2.22;;;;;;;31.63;23.68;99891.91;5033234;28;20086;-75
2022/08/12 10:39:12;;;;;;;3.90;2.13;;;;;;;31.60;24.06;99902.63;5031860;28;20058;-76
2022/08/12 10:44:23;;;;;;;5.65;2.58;;;;;;;32.31;23.42;99883.69;5031892;28;20453;-76
2022/08/12 10:46:51;;;;;;;9.00;2.90;;;;;;;32.81;22.90;99880.06;5032947;28;20195;-77
2022/08/12 10:49:18;;;;;;;;;;;;;;;32.50;22.70;99884.28;5032134;28;20056;-76
2022/08/12 10:51:47;;;;;;;3.95;2.17;;;;;;;32.78;22.65;99863.94;5031677;28;19924;-76
2022/08/12 10:54:15;;;;;;;6.45;2.50;;;;;;;32.97;22.07;99889.44;4998725;28;20037;-76
2022/08/12 10:56:47;;;;;;;3.60;2.10;;;;;;;33.10;21.04;99883.53;5031464;28;20045;-77
2022/08/12 10:59:14;;;;;;;5.10;2.00;;;;;;;32.49;21.42;99875.16;5032960;28;20041;-77
2022/08/12 11:01:41;;;;;;;6.40;2.38;;;;;;;31.80;21.99;99867.06;5032719;28;20048;-76
2022/08/12 11:04:12;;;;;;;4.28;2.22;;;;;;;32.22;22.25;99871.38;5015299;28;20076;-76
2022/08/12 11:06:49;;;;;;;5.20;2.00;;;;;;;32.96;21.57;99860.91;5031411;28;20481;-77
2022/08/12 11:09:23;;;;;;;4.07;2.42;;;;;;;33.23;21.60;99865.66;4998456;28;20393;-77
2022/08/12 11:11:50;;;;;;;9.18;2.28;;;;;;;33.18;20.93;99857.31;4997569;28;20041;-77
2022/08/12 11:14:23;;;;;;;3.63;2.10;;;;;;;32.91;20.95;99858.03;5031370;28;20042;-77
2022/08/12 11:16:49;;;;;;;5.13;2.15;;;;;;;33.06;20.95;99855.50;5031386;28;20587;-76
2022/08/12 11:19:15;;;;;;;3.55;1.90;;;;;;;33.15;20.85;99871.66;5032873;28;20128;-76
2022/08/12 11:21:40;;;;;;;3.92;1.95;;;;;;;32.88;20.72;99858.56;5031055;28;20408;-76
2022/08/12 11:24:06;;;;;;;2.38;2.08;;;;;;;33.28;20.51;99852.69;4999094;28;20386;-76
2022/08/12 11:26:32;;;;;;;8.40;2.22;;;;;;;33.85;19.83;99851.34;5032594;28;20135;-76
2022/08/12 11:28:58;;;;;;;3.75;1.95;;;;;;;34.06;19.55;99856.00;5031276;28;20041;-76
2022/08/12 11:31:24;;;;;;;5.13;2.00;;;;;;;34.21;19.53;99843.38;5031290;28;20080;-76
2022/08/12 11:33:50;;;;;;;3.58;1.98;;;;;;;34.25;19.40;99836.19;5014875;28;20061;-76
2022/08/12 11:36:16;;;;;;;1.80;1.70;;;;;;;34.31;19.51;99843.44;5014701;28;20045;-77
2022/08/12 11:38:43;;;;;;;4.13;2.25;;;;;;;34.63;19.55;99828.69;5031468;28;20049;-76
2022/08/12 11:41:09;;;;;;;5.47;1.95;;;;;;;34.91;18.78;99842.16;5031083;28;20136;-76
2022/08/12 11:43:34;;;;;;;6.68;2.00;;;;;;;35.25;18.58;99833.41;5032390;28;20179;-76
2022/08/12 11:46:01;;;;;;;3.70;1.90;;;;;;;35.92;18.42;99838.00;5031765;28;20033;-76
2022/08/12 11:48:27;;;;;;;7.22;2.08;;;;;;;35.36;18.54;99832.34;4998086;28;20176;-76
2022/08/12 11:50:53;;;;;;;3.95;2.25;;;;;;;35.15;18.90;99830.59;5032402;28;20136;-76
2022/08/12 11:53:19;;;;;;;5.30;2.53;;;;;;;34.69;18.90;99822.06;4998932;28;20034;-76
2022/08/12 11:55:45;;;;;;;8.77;2.10;;;;;;;34.85;18.85;99837.69;5030896;28;20044;-76
2022/08/12 11:58:11;;;;;;;8.20;1.92;;;;;;;35.20;18.21;99842.56;5031001;28;20041;-77
2022/08/12 12:00:37;;;;;;;2.67;1.90;;;;;;;34.96;18.52;99833.84;5031842;28;20073;-77
2022/08/12 12:03:02;;;;;;;9.35;1.85;;;;;;;34.65;18.72;99829.25;5032181;28;20507;-76
2022/08/12 12:05:28;;;;;;;5.30;2.10;;;;;;;35.32;18.45;99825.66;5031207;28;20038;-76
2022/08/12 12:07:54;;;;;;;4.80;1.90;;;;;;;35.86;18.02;99827.16;5014651;28;20346;-77
2022/08/12 12:10:20;;;;;;;4.93;2.00;;;;;;;36.22;17.93;99827.97;4998093;28;20492;-76
2022/08/12 12:12:46;;;;;;;5.57;2.47;;;;;;;35.64;17.88;99830.19;5032376;28;20497;-77
2022/08/12 12:15:13;;;;;;;3.70;1.88;;;;;;;36.39;17.21;99822.09;5030445;28;20081;-76
2022/08/12 12:17:40;;;;;;;5.40;1.95;;;;;;;36.47;17.38;99819.59;5030709;28;20037;-76
2022/08/12 12:20:09;;;;;;;3.38;1.70;;;;;;;37.17;16.71;99827.19;5030346;28;20045;-76
2022/08/12 12:22:36;;;;;;;8.00;1.88;;;;;;;37.31;16.89;99828.22;5015924;28;20136;-76
2022/08/12 12:25:04;;;;;;;3.03;1.88;;;;;;;37.89;16.25;99825.63;5035751;28;20548;-76
2022/08/12 12:27:52;;;;;;;10.10;2.10;;;;;;;38.38;16.13;99813.47;5018223;28;20037;-77
2022/08/12 12:30:19;;;;;;;5.80;1.90;;;;;;;38.03;16.23;99828.59;5001397;28;20048;-76
2022/08/12 12:32:45;;;;;;;4.18;1.90;;;;;;;38.23;16.15;99819.16;5017749;28;20045;-76
2022/08/12 12:35:11;;;;;;;6.40;1.75;;;;;;;38.25;15.95;99814.09;5017543;28;20049;-76
2022/08/12 12:37:55;;;;;;;3.38;2.03;;;;;;;38.33;16.03;99815.47;5017263;28;20094;-77
2022/08/12 12:40:22;;;;;;;6.78;1.92;;;;;;;38.28;16.10;99812.69;5034805;28;20152;-76
2022/08/12 12:42:48;;;;;;;5.50;1.90;;;;;;;38.39;16.29;99808.69;5034321;28;20053;-76
2022/08/12 12:45:15;;;;;;;6.13;2.03;;;;;;;37.44;16.63;99807.25;5035703;28;20287;-76
2022/08/12 12:48:05;;;;;;;5.03;1.80;;;;;;;37.88;16.28;99820.34;5035212;28;20428;-76
2022/08/12 12:50:32;;;;;;;5.43;2.00;;;;;;;37.82;16.35;99807.50;5034863;28;20045;-76
2022/08/12 12:52:58;;;;;;;4.78;1.65;;;;;;;38.16;16.27;99804.72;5018193;28;20455;-76
2022/08/12 12:55:25;;;;;;;5.40;1.67;;;;;;;39.10;16.01;99788.28;5033432;28;20077;-76
2022/08/12 12:57:51;;;;;;;5.75;1.95;;;;;;;39.14;15.05;99796.91;5033416;28;20378;-76
2022/08/12 13:00:20;;;;;;;5.05;1.83;;;;;;;38.12;15.95;99787.72;5033443;28;20528;-76
2022/08/12 13:02:56;;;;;;;3.05;1.98;;;;;;;38.30;15.80;99793.69;5017153;28;20140;-76
2022/08/12 13:05:37;;;;;;;5.25;2.03;;;;;;;38.54;15.76;99788.16;5017117;28;20095;-76
2022/08/12 13:08:23;;;;;;;3.42;2.10;;;;;;;39.21;15.40;99788.97;5001158;28;20136;-76
2022/08/12 13:10:54;;;;;;;7.20;1.85;;;;;;;39.65;15.18;99790.56;5033753;28;20497;-76
2022/08/12 13:13:20;;;;;;;5.70;1.70;;;;;;;39.99;14.71;99775.47;5050520;28;20047;-76
2022/08/12 13:15:48;;;;;;;6.78;1.90;;;;;;;39.74;15.07;99776.75;5016644;28;20087;-76
2022/08/12 13:18:16;;;;;;;2.88;1.40;;;;;;;40.24;14.77;99789.00;5033237;28;20437;-76
2022/08/12 13:20:44;;;;;;;4.22;1.40;;;;;;;40.02;14.35;99791.63;5032795;28;20042;-76
2022/08/12 13:23:11;;;;;;;2.65;1.73;;;;;;;40.14;14.57;99791.19;5032892;28;20103;-76
2022/08/12 13:25:40;;;;;;;3.87;1.70;;;;;;;39.97;14.53;99783.34;5049709;28;20049;-76
2022/08/12 13:28:12;;;;;;;5.47;1.70;;;;;;;40.33;13.99;99788.31;5034196;28;20104;-76
2022/08/12 13:30:37;;;;;;;4.70;1.55;;;;;;;40.33;13.76;99777.09;5033287;28;20041;-76